Terminal Aerodrome Forecast
Issued by NWS

Current Version | Previous Version | Graphics & Text | Print | Product List | Glossary On
Versions: 1 2 3 4 5 6 7 8 9 10 11 12 13 14 15
000
FTUS41 KPBZ 181800 RRA
TAFMGW
TAF
KMGW 181814Z 1818/1918 20008KT P6SM SCT080
     FM190000 29007KT P6SM SCT050
     FM190300 34005KT P6SM SKC=

USA.gov is the U.S. government's official web portal to all federal, state and local government web resources and services.